Time;durP1;ratioP1;P1;durP2;ratioP2;P2;SDS_P1;SDS_P2;PMS_P1;PMS_P2;Temp;Humidity;BMP_temperature;BMP_pressure;BME280_temperature;BME280_humidity;BME280_pressure;Samples;Min_cycle;Max_cycle;Signal;HPM_P1;HPM_P2
2022/08/24 00:01:23;;;;;;;14.30;10.05;;;;;;;21.14;61.26;99882.09;5035183;28;20136;-73
2022/08/24 00:03:50;;;;;;;17.38;10.98;;;;;;;20.57;61.67;99808.50;5036230;28;20045;-73
2022/08/24 00:06:24;;;;;;;14.35;9.93;;;;;;;21.06;62.17;99898.97;5036204;28;20132;-73
2022/08/24 00:08:52;;;;;;;18.95;10.85;;;;;;;20.91;61.93;99877.06;5035439;28;20457;-73
2022/08/24 00:11:20;;;;;;;20.90;10.77;;;;;;;21.13;61.52;99903.13;5036128;28;20092;-73
2022/08/24 00:13:47;;;;;;;15.93;11.65;;;;;;;21.17;61.34;99889.88;5035742;28;20137;-73
2022/08/24 00:16:15;;;;;;;13.70;10.00;;;;;;;21.19;61.45;99879.78;5035788;28;20057;-74
2022/08/24 00:18:44;;;;;;;18.52;11.65;;;;;;;21.20;61.69;99892.00;5035896;28;20148;-73
2022/08/24 00:21:11;;;;;;;20.45;10.77;;;;;;;20.59;61.47;99799.66;5035763;28;20095;-73
2022/08/24 00:23:38;;;;;;;18.98;10.98;;;;;;;21.21;61.42;99890.78;5035989;28;20490;-73
2022/08/24 00:26:05;;;;;;;18.65;9.85;;;;;;;21.21;61.33;99888.78;5035638;28;20083;-74
2022/08/24 00:28:33;;;;;;;16.15;10.35;;;;;;;21.28;61.75;99888.94;5035556;28;20648;-74
2022/08/24 00:31:00;;;;;;;13.52;10.15;;;;;;;21.17;61.64;99867.16;5036304;28;20053;-73
2022/08/24 00:33:27;;;;;;;23.33;10.75;;;;;;;21.26;61.63;99873.44;5035655;28;20544;-74
2022/08/24 00:35:54;;;;;;;16.88;10.60;;;;;;;21.02;61.23;99835.56;5035495;28;20053;-73
2022/08/24 00:38:21;;;;;;;21.02;10.52;;;;;;;21.29;61.76;99867.84;5034552;28;20463;-73
2022/08/24 00:40:53;;;;;;;16.40;10.82;;;;;;;20.94;61.72;99822.41;5035068;28;20072;-73
2022/08/24 00:43:22;;;;;;;12.50;11.13;;;;;;;21.25;61.97;99864.13;5035412;28;20576;-73
2022/08/24 00:46:12;;;;;;;19.73;11.50;;;;;;;21.17;61.86;99858.66;5035274;28;20089;-73
2022/08/24 00:48:43;;;;;;;16.15;11.38;;;;;;;21.08;62.09;99844.63;5035370;28;20498;-74
2022/08/24 00:51:24;;;;;;;17.40;10.60;;;;;;;21.16;61.98;99866.34;5035519;28;20053;-74
2022/08/24 00:54:04;;;;;;;16.67;10.80;;;;;;;21.12;62.12;99839.03;5035186;28;20133;-74
2022/08/24 00:56:36;;;;;;;12.35;10.00;;;;;;;21.20;61.79;99860.75;5035111;28;20096;-73
2022/08/24 00:59:12;;;;;;;18.13;11.65;;;;;;;21.05;61.91;99846.19;5034791;28;20490;-73
2022/08/24 01:01:40;;;;;;;13.48;11.02;;;;;;;21.16;62.07;99874.00;5034846;28;20054;-74
2022/08/24 01:04:14;;;;;;;17.77;11.35;;;;;;;20.92;62.35;99838.16;5034978;28;20099;-72
2022/08/24 01:06:41;;;;;;;14.27;12.02;;;;;;;20.88;62.80;99854.28;5034723;28;20085;-73
2022/08/24 01:09:08;;;;;;;15.55;12.20;;;;;;;20.63;62.65;99805.41;5034852;28;20072;-73
2022/08/24 01:11:35;;;;;;;19.25;12.75;;;;;;;20.91;62.85;99857.19;5035266;28;20132;-73
2022/08/24 01:14:04;;;;;;;24.45;12.73;;;;;;;20.84;62.85;99840.00;5034563;28;20081;-73
2022/08/24 01:19:29;;;;;;;17.48;12.35;;;;;;;20.77;63.21;99852.00;5055210;28;20543;-72
2022/08/24 01:22:09;;;;;;;18.77;13.05;;;;;;;20.86;63.13;99857.50;5054879;28;20048;-72
2022/08/24 01:24:36;;;;;;;27.33;14.40;;;;;;;20.60;62.77;99806.97;5054553;28;20076;-73
2022/08/24 01:27:07;;;;;;;28.50;14.25;;;;;;;20.93;63.16;99854.84;5054790;28;20460;-74
2022/08/24 01:29:36;;;;;;;22.88;13.60;;;;;;;21.01;62.97;99870.00;5054229;28;20517;-74
2022/08/24 01:32:03;;;;;;;25.75;13.80;;;;;;;20.95;63.56;99852.44;5053500;28;20087;-72
2022/08/24 01:34:30;;;;;;;22.58;14.52;;;;;;;20.83;63.51;99858.22;5053460;28;20069;-73
2022/08/24 01:36:59;;;;;;;23.50;14.30;;;;;;;20.75;63.80;99851.56;5054231;28;20049;-73
2022/08/24 01:39:30;;;;;;;24.25;15.02;;;;;;;20.74;64.18;99854.75;5054537;28;20045;-73
2022/08/24 01:41:58;;;;;;;25.88;15.05;;;;;;;20.70;63.88;99853.81;5054280;28;20489;-72
2022/08/24 01:44:27;;;;;;;23.63;15.48;;;;;;;20.73;63.82;99836.91;5052911;28;20087;-72
2022/08/24 01:46:55;;;;;;;22.45;15.57;;;;;;;20.89;63.81;99859.59;5054322;28;20481;-73
2022/08/24 01:49:26;;;;;;;27.20;15.63;;;;;;;20.57;63.95;99807.69;5047618;28;20071;-73
2022/08/24 01:51:54;;;;;;;27.23;16.25;;;;;;;20.86;63.84;99860.34;5033870;28;20099;-73
2022/08/24 01:54:21;;;;;;;30.48;17.60;;;;;;;20.82;63.75;99859.41;5033929;28;20076;-73
2022/08/24 01:56:48;;;;;;;37.28;16.95;;;;;;;20.57;64.08;99811.34;5033922;28;20053;-73
2022/08/24 01:59:16;;;;;;;31.90;15.60;;;;;;;20.88;63.68;99874.97;5033838;28;20092;-73
2022/08/24 02:01:50;;;;;;;26.95;16.02;;;;;;;20.64;63.84;99826.91;5033944;28;20465;-72
2022/08/24 02:04:17;;;;;;;37.33;17.58;;;;;;;20.82;63.98;99859.41;5034154;28;20049;-74
2022/08/24 02:06:44;;;;;;;37.22;17.35;;;;;;;20.79;63.95;99857.31;5034361;28;20081;-74
2022/08/24 02:09:11;;;;;;;39.60;17.75;;;;;;;20.70;64.26;99834.78;5034013;28;20053;-73
2022/08/24 02:11:40;;;;;;;24.67;14.43;;;;;;;20.68;64.03;99836.34;5033870;28;20103;-73
2022/08/24 02:14:07;;;;;;;34.05;16.40;;;;;;;20.50;64.38;99824.50;5033655;28;20080;-73
2022/08/24 02:16:34;;;;;;;29.20;16.77;;;;;;;20.55;64.55;99844.94;5033682;28;20053;-72
2022/08/24 02:19:01;;;;;;;38.80;16.50;;;;;;;20.36;64.71;99813.59;5033515;28;20592;-72
2022/08/24 02:21:28;;;;;;;35.40;17.23;;;;;;;20.43;65.19;99852.69;5033383;28;20081;-72
2022/08/24 02:23:55;;;;;;;26.80;16.38;;;;;;;20.39;65.19;99851.75;5049359;28;20053;-72
2022/08/24 02:26:22;;;;;;;30.27;17.58;;;;;;;20.44;65.25;99849.47;5033381;28;20100;-72
2022/08/24 02:28:53;;;;;;;30.92;17.23;;;;;;;20.06;65.02;99780.00;5033234;28;20057;-72
2022/08/24 02:31:23;;;;;;;36.13;16.92;;;;;;;20.53;65.01;99835.97;5033353;28;20061;-73
2022/08/24 02:33:50;;;;;;;27.98;17.55;;;;;;;20.55;64.82;99839.28;5033347;28;20548;-73
2022/08/24 02:36:17;;;;;;;33.20;17.77;;;;;;;20.68;64.84;99854.19;5033255;28;20176;-73
2022/08/24 02:38:52;;;;;;;37.63;17.92;;;;;;;20.84;64.54;99862.69;5047884;28;20370;-73
2022/08/24 02:41:21;;;;;;;35.72;18.17;;;;;;;20.55;64.56;99822.25;5033709;28;20131;-73
2022/08/24 02:43:48;;;;;;;42.50;18.17;;;;;;;20.77;64.82;99839.81;5033100;28;20571;-73
2022/08/24 02:46:17;;;;;;;34.58;18.40;;;;;;;20.94;64.65;99850.78;5033165;28;20088;-74
2022/08/24 02:48:44;;;;;;;39.10;18.33;;;;;;;20.77;64.92;99812.25;5033050;28;20053;-73
2022/08/24 02:51:28;;;;;;;37.65;18.85;;;;;;;20.78;64.56;99810.25;5032886;28;20053;-73
2022/08/24 02:53:57;;;;;;;27.58;17.40;;;;;;;20.68;65.05;99802.28;5032948;28;20469;-72
2022/08/24 02:56:25;;;;;;;31.03;18.27;;;;;;;20.96;64.97;99862.63;5033029;28;20053;-73
2022/08/24 02:58:52;;;;;;;39.47;19.58;;;;;;;20.86;64.97;99846.16;5051424;28;20049;-73
2022/08/24 03:01:19;;;;;;;33.88;18.40;;;;;;;20.39;64.91;99770.34;5053104;28;20060;-73
2022/08/24 03:03:50;;;;;;;38.83;19.10;;;;;;;20.59;65.36;99814.66;5047141;28;20053;-73
2022/08/24 03:06:17;;;;;;;43.70;19.50;;;;;;;20.61;65.26;99819.94;5033138;28;20103;-74
2022/08/24 03:08:45;;;;;;;35.88;18.33;;;;;;;20.89;65.39;99858.75;5032669;28;20049;-74
2022/08/24 03:11:21;;;;;;;35.75;21.40;;;;;;;20.80;65.49;99844.75;5033002;28;20049;-73
2022/08/24 03:13:54;;;;;;;26.92;16.73;;;;;;;20.84;65.33;99842.84;5033109;28;20132;-72
2022/08/24 03:16:21;;;;;;;32.70;16.90;;;;;;;20.66;65.27;99821.72;5032933;28;20077;-73
2022/08/24 03:18:48;;;;;;;43.15;19.17;;;;;;;20.93;65.35;99862.53;5032867;28;20049;-73
2022/08/24 03:21:17;;;;;;;37.42;18.33;;;;;;;21.00;65.07;99876.91;5032607;28;20558;-73
2022/08/24 03:23:44;;;;;;;31.73;17.27;;;;;;;20.50;65.27;99797.00;5032590;28;20103;-73
2022/08/24 03:26:12;;;;;;;30.75;16.95;;;;;;;20.97;65.41;99871.94;5032515;28;20077;-73
2022/08/24 03:28:39;;;;;;;32.22;17.15;;;;;;;20.83;65.36;99847.69;5032468;28;20097;-74
2022/08/24 03:31:10;;;;;;;29.95;16.95;;;;;;;20.66;65.14;99827.38;5033347;28;20075;-74
2022/08/24 03:33:37;;;;;;;30.15;18.52;;;;;;;20.79;65.38;99848.81;5032727;28;20049;-74
2022/08/24 03:36:04;;;;;;;27.77;16.38;;;;;;;20.69;65.40;99849.34;5032398;28;20084;-73
2022/08/24 03:38:31;;;;;;;30.55;17.45;;;;;;;20.85;65.35;99870.00;5032676;28;20077;-73
2022/08/24 03:40:58;;;;;;;35.33;15.57;;;;;;;20.48;65.57;99816.38;5032759;28;20053;-73
2022/08/24 03:46:11;;;;;;;37.97;18.40;;;;;;;20.03;65.76;99772.25;5032300;28;20053;-73
2022/08/24 03:48:39;;;;;;;29.85;19.27;;;;;;;20.65;65.85;99871.09;5040372;28;20053;-73
2022/08/24 03:51:10;;;;;;;26.40;16.75;;;;;;;20.43;65.94;99847.00;5052365;28;20563;-73
2022/08/24 03:53:38;;;;;;;34.75;19.50;;;;;;;19.93;66.03;99771.94;5051176;28;20048;-74
2022/08/24 03:56:10;;;;;;;26.40;14.98;;;;;;;20.19;66.30;99816.78;5051957;28;20049;-73
2022/08/24 03:58:38;;;;;;;34.75;16.90;;;;;;;20.10;66.40;99812.13;5032873;28;20107;-73
2022/08/24 04:01:05;;;;;;;34.83;17.92;;;;;;;20.25;66.74;99855.03;5032317;28;20069;-74
2022/08/24 04:03:43;;;;;;;34.15;18.42;;;;;;;20.32;66.50;99835.38;5032356;28;20395;-74
2022/08/24 04:06:12;;;;;;;34.78;17.60;;;;;;;20.55;66.32;99861.97;5045209;28;20406;-74
2022/08/24 04:08:40;;;;;;;42.97;18.13;;;;;;;20.45;66.30;99838.97;5050916;28;20501;-74
2022/08/24 04:11:19;;;;;;;36.40;18.90;;;;;;;20.57;66.23;99858.75;5052474;28;20099;-73
2022/08/24 04:13:48;;;;;;;39.55;17.75;;;;;;;20.20;66.28;99795.75;5052162;28;20068;-73
2022/08/24 04:16:17;;;;;;;29.05;15.82;;;;;;;20.71;66.26;99864.78;5055113;28;20143;-73
2022/08/24 04:18:45;;;;;;;33.70;17.17;;;;;;;20.24;66.26;99805.16;5054525;28;20056;-73
2022/08/24 04:21:19;;;;;;;23.23;14.73;;;;;;;20.62;66.10;99857.69;5055781;28;20053;-72
2022/08/24 04:23:46;;;;;;;27.42;16.23;;;;;;;20.68;66.31;99870.38;5054876;28;20049;-73
2022/08/24 04:26:15;;;;;;;22.67;15.45;;;;;;;20.57;66.14;99853.91;5055925;28;20449;-73
2022/08/24 04:29:03;;;;;;;21.63;14.30;;;;;;;20.74;66.33;99874.59;5055316;28;20049;-73
2022/08/24 04:31:35;;;;;;;20.50;13.77;;;;;;;20.74;66.15;99864.06;5055606;28;20501;-73
2022/08/24 04:34:03;;;;;;;24.30;14.80;;;;;;;20.74;66.24;99885.94;5055521;28;20049;-74
2022/08/24 04:36:31;;;;;;;27.35;16.17;;;;;;;20.65;66.12;99862.59;5055353;28;20088;-74
2022/08/24 04:39:00;;;;;;;22.85;17.15;;;;;;;20.77;66.35;99866.19;5054925;28;20383;-73
2022/08/24 04:41:26;;;;;;;20.25;14.07;;;;;;;20.83;66.33;99889.44;5055403;28;20110;-74
2022/08/24 04:43:58;;;;;;;17.60;14.13;;;;;;;20.68;66.10;99859.03;5055263;28;20103;-74
2022/08/24 04:46:26;;;;;;;21.65;13.82;;;;;;;20.88;66.20;99879.81;5055778;28;20049;-73
2022/08/24 04:48:53;;;;;;;27.80;14.55;;;;;;;20.77;66.10;99880.38;5055633;28;20052;-73
2022/08/24 04:51:21;;;;;;;31.02;14.02;;;;;;;20.48;66.03;99821.22;5055221;28;20566;-74
2022/08/24 04:53:49;;;;;;;17.98;13.70;;;;;;;20.93;66.18;99876.72;5055460;28;20115;-73
2022/08/24 04:56:21;;;;;;;18.15;14.82;;;;;;;20.62;65.95;99817.97;5049501;28;20045;-74
2022/08/24 04:58:54;;;;;;;23.35;14.48;;;;;;;20.86;65.84;99851.00;5035396;28;20052;-73
2022/08/24 05:01:23;;;;;;;20.23;14.00;;;;;;;21.00;65.92;99874.88;5035113;28;20143;-73
2022/08/24 05:03:52;;;;;;;;;;;;;;;21.03;65.34;99879.81;5035291;28;20134;-73
2022/08/24 05:06:22;;;;;;;28.17;15.80;;;;;;;20.82;65.20;99833.88;5035154;28;19967;-74
2022/08/24 05:08:50;;;;;;;28.83;16.95;;;;;;;20.97;65.26;99866.28;5023324;28;20081;-73
2022/08/24 05:11:19;;;;;;;26.10;15.82;;;;;;;20.92;65.69;99866.53;5015164;28;20073;-73
2022/08/24 05:13:46;;;;;;;23.00;14.90;;;;;;;21.05;65.58;99885.94;5025700;28;20111;-72
2022/08/24 05:16:19;;;;;;;26.15;15.40;;;;;;;20.95;65.97;99885.66;5034781;28;20490;-73
2022/08/24 05:18:47;;;;;;;27.08;15.68;;;;;;;20.57;66.33;99851.06;5034733;28;20060;-73
2022/08/24 05:21:17;;;;;;;27.17;16.27;;;;;;;20.85;66.65;99895.56;5034639;28;20084;-71
2022/08/24 05:23:47;;;;;;;20.83;14.65;;;;;;;20.68;66.35;99881.72;5034691;28;20052;-71
2022/08/24 05:26:19;;;;;;;24.17;17.02;;;;;;;20.79;66.28;99894.19;5034608;28;20480;-72
2022/08/24 05:28:46;;;;;;;23.92;17.77;;;;;;;20.74;66.51;99900.13;5036542;28;20374;-72
2022/08/24 05:31:18;;;;;;;33.72;17.50;;;;;;;20.45;66.44;99853.16;5037103;28;20049;-72
2022/08/24 05:33:47;;;;;;;37.80;17.25;;;;;;;20.65;66.58;99902.31;5015480;28;20053;-72
2022/08/24 05:36:25;;;;;;;26.25;16.58;;;;;;;20.31;66.46;99862.91;5015699;28;20132;-70
2022/08/24 05:38:55;;;;;;;21.45;16.30;;;;;;;20.54;66.75;99917.03;5014963;28;20057;-71
2022/08/24 05:41:23;;;;;;;36.75;17.70;;;;;;;20.28;67.13;99896.84;5015232;28;20486;-71
2022/08/24 05:43:50;;;;;;;30.73;16.35;;;;;;;20.32;67.00;99890.06;5015394;28;20085;-72
2022/08/24 05:46:17;;;;;;;24.20;16.60;;;;;;;20.31;67.38;99913.13;5015280;28;20054;-72
2022/08/24 05:48:46;;;;;;;19.40;16.10;;;;;;;20.23;67.54;99914.91;5050482;28;20049;-72
2022/08/24 05:51:19;;;;;;;28.67;16.33;;;;;;;20.20;67.55;99911.97;5054727;28;20056;-72
2022/08/24 05:53:47;;;;;;;25.70;14.45;;;;;;;20.32;67.33;99918.44;5054685;28;20052;-73
2022/08/24 05:56:16;;;;;;;29.90;15.55;;;;;;;20.26;67.44;99930.38;5033791;28;20049;-73
2022/08/24 05:58:44;;;;;;;29.55;15.82;;;;;;;20.10;67.76;99917.00;5034888;28;20053;-73
2022/08/24 06:01:17;;;;;;;23.95;14.75;;;;;;;20.16;67.42;99916.72;5033814;28;20127;-72
2022/08/24 06:03:44;;;;;;;26.80;15.70;;;;;;;20.15;67.73;99929.25;5035581;28;20061;-73
2022/08/24 06:06:12;;;;;;;25.67;14.13;;;;;;;20.07;67.46;99909.22;5054822;28;20052;-73
2022/08/24 06:08:43;;;;;;;26.60;14.35;;;;;;;20.28;67.44;99936.53;5055310;28;20075;-73
2022/08/24 06:11:10;;;;;;;18.77;14.85;;;;;;;20.17;67.36;99936.22;5055406;28;20053;-73
2022/08/24 06:13:37;;;;;;;19.20;15.68;;;;;;;20.19;67.41;99944.38;5054349;28;20049;-73
2022/08/24 06:16:10;;;;;;;24.45;14.82;;;;;;;20.04;67.64;99932.59;5054243;28;20052;-73
2022/08/24 06:18:48;;;;;;;28.42;14.98;;;;;;;20.17;67.52;99947.56;5054176;28;20052;-73
2022/08/24 06:21:20;;;;;;;16.30;14.10;;;;;;;19.98;67.61;99928.38;5053476;28;20072;-73
2022/08/24 06:23:48;;;;;;;19.65;14.10;;;;;;;20.13;67.79;99955.94;5053735;28;20083;-72
2022/08/24 06:29:01;;;;;;;19.90;13.13;;;;;;;20.07;67.77;99965.91;5053256;28;20057;-73
2022/08/24 06:31:28;;;;;;;29.83;13.73;;;;;;;19.60;68.12;99906.97;5053382;28;20110;-72
2022/08/24 06:34:06;;;;;;;14.73;12.77;;;;;;;19.82;68.28;99961.47;5053211;28;20049;-73
2022/08/24 06:36:33;;;;;;;26.67;13.70;;;;;;;19.76;68.40;99960.91;5053596;28;20053;-73
2022/08/24 06:39:00;;;;;;;51.72;14.93;;;;;;;19.58;68.32;99943.28;5066892;28;20053;-73
2022/08/24 06:41:27;;;;;;;25.88;14.65;;;;;;;19.59;68.27;99944.16;5053189;28;20559;-74
2022/08/24 06:43:54;;;;;;;15.40;13.95;;;;;;;19.65;68.40;99959.72;5052362;28;20076;-75
2022/08/24 06:46:21;;;;;;;16.02;14.38;;;;;;;19.74;68.39;99962.44;5053389;28;20056;-73
2022/08/24 06:48:52;;;;;;;16.75;13.60;;;;;;;19.77;68.69;99962.56;5053047;28;20489;-73
2022/08/24 06:51:24;;;;;;;18.40;14.38;;;;;;;19.91;68.41;99979.16;5053243;28;20076;-73
2022/08/24 06:53:53;;;;;;;15.98;14.27;;;;;;;19.87;68.30;99981.06;5052834;28;20052;-73
2022/08/24 06:56:20;;;;;;;20.80;14.23;;;;;;;19.83;68.53;99974.47;5038198;28;20072;-73
2022/08/24 06:58:47;;;;;;;18.75;13.70;;;;;;;19.82;68.36;99978.47;5032922;28;20494;-74
2022/08/24 07:01:19;;;;;;;19.30;14.18;;;;;;;19.89;68.65;99976.66;5032841;28;20127;-73
2022/08/24 07:03:47;;;;;;;17.58;13.90;;;;;;;19.95;68.56;99971.59;5031988;28;20076;-73
2022/08/24 07:06:14;;;;;;;16.00;14.30;;;;;;;19.64;68.56;99939.06;5033272;28;20045;-73
2022/08/24 07:08:42;;;;;;;18.65;15.82;;;;;;;19.96;68.62;99987.41;5032954;28;20053;-72
2022/08/24 07:11:11;;;;;;;22.27;15.45;;;;;;;19.94;68.68;99989.78;5033047;28;20095;-72
2022/08/24 07:13:37;;;;;;;17.67;16.23;;;;;;;19.97;68.90;99996.75;5033950;28;20081;-73
2022/08/24 07:16:05;;;;;;;15.95;14.50;;;;;;;19.71;68.63;99943.31;5033198;28;20073;-73
2022/08/24 07:18:32;;;;;;;19.05;17.25;;;;;;;19.89;68.79;99975.84;5032868;28;20059;-73
2022/08/24 07:21:01;;;;;;;22.45;15.20;;;;;;;20.05;68.94;99988.09;5033018;28;20057;-73
2022/08/24 07:23:30;;;;;;;15.25;14.15;;;;;;;19.88;68.92;99986.38;5032588;28;20052;-73
2022/08/24 07:26:11;;;;;;;23.77;14.95;;;;;;;19.92;69.30;99991.31;5032635;28;20041;-73
2022/08/24 07:29:03;;;;;;;16.83;15.45;;;;;;;19.91;69.26;99995.34;5034405;28;20060;-73
2022/08/24 07:31:36;;;;;;;16.08;14.77;;;;;;;19.90;69.22;99994.53;5052686;28;20063;-73
2022/08/24 07:34:05;;;;;;;15.98;13.73;;;;;;;19.98;69.41;99995.56;5052472;28;20053;-74
2022/08/24 07:36:33;;;;;;;15.30;13.82;;;;;;;20.09;69.31;100020.22;5053011;28;20107;-73
2022/08/24 07:39:00;;;;;;;16.02;14.38;;;;;;;20.26;69.06;100009.78;5052391;28;20076;-73
2022/08/24 07:41:30;;;;;;;12.77;11.77;;;;;;;19.97;68.88;99969.25;5052650;28;20057;-73
2022/08/24 07:44:18;;;;;;;18.55;13.40;;;;;;;20.25;68.81;100017.47;5052706;28;20052;-73
2022/08/24 07:46:45;;;;;;;16.35;15.02;;;;;;;20.29;68.52;100026.91;5051656;28;20102;-74
2022/08/24 07:49:12;;;;;;;14.73;13.45;;;;;;;20.17;68.84;100023.25;5052560;28;20572;-73
2022/08/24 07:51:59;;;;;;;15.35;14.15;;;;;;;20.32;68.61;100037.53;5056387;28;20049;-74
2022/08/24 07:54:29;;;;;;;14.77;13.43;;;;;;;20.40;68.17;100015.88;5056243;28;20498;-73
2022/08/24 07:56:58;;;;;;;;;;;;;;;20.47;67.87;100032.28;5036724;28;20080;-74
2022/08/24 07:59:24;;;;;;;14.55;13.35;;;;;;;20.44;67.95;100021.66;5036328;28;19963;-73
2022/08/24 08:01:51;;;;;;;18.92;15.30;;;;;;;19.93;67.80;99954.16;5035932;28;20085;-74
2022/08/24 08:04:23;;;;;;;21.92;17.65;;;;;;;20.39;68.19;100024.75;5036848;28;20049;-74
2022/08/24 08:06:51;;;;;;;21.67;16.25;;;;;;;20.38;68.07;100026.75;5036380;28;20084;-73
2022/08/24 08:09:18;;;;;;;21.88;19.58;;;;;;;20.40;68.10;100030.06;5036119;28;20096;-74
2022/08/24 08:11:45;;;;;;;17.30;15.70;;;;;;;20.48;68.47;100048.13;5036413;28;20054;-74
2022/08/24 08:14:13;;;;;;;18.55;16.33;;;;;;;20.48;67.92;100020.59;5036207;28;20050;-74
2022/08/24 08:16:41;;;;;;;15.40;14.07;;;;;;;20.45;68.05;100020.47;5035939;28;20629;-73
2022/08/24 08:19:08;;;;;;;14.15;13.05;;;;;;;20.49;68.20;100033.56;5035800;28;20073;-72
2022/08/24 08:24:32;;;;;;;14.60;13.40;;;;;;;20.50;68.10;100035.25;5035729;28;20072;-73
2022/08/24 08:27:00;;;;;;;14.65;13.25;;;;;;;20.54;67.98;100035.34;5035676;28;20462;-73
2022/08/24 08:29:31;;;;;;;15.38;14.07;;;;;;;20.51;67.68;100030.41;5050905;28;20081;-73
2022/08/24 08:31:59;;;;;;;16.15;14.73;;;;;;;20.09;67.83;99949.34;5035575;28;20053;-73
2022/08/24 08:34:28;;;;;;;13.57;12.38;;;;;;;20.45;67.68;100020.47;5035646;28;20080;-73
2022/08/24 08:36:54;;;;;;;14.95;13.77;;;;;;;20.59;68.00;100043.63;5036158;28;20061;-75
2022/08/24 08:39:22;;;;;;;15.10;13.50;;;;;;;20.57;67.75;100058.16;5035565;28;20120;-73
2022/08/24 08:42:19;;;;;;;15.60;14.25;;;;;;;20.58;67.91;100045.63;5035449;28;20053;-73
2022/08/24 08:45:11;;;;;;;13.32;11.85;;;;;;;20.19;68.19;99984.06;5035560;28;20085;-74
2022/08/24 08:47:43;;;;;;;13.98;12.70;;;;;;;20.71;68.02;100060.56;5035734;28;20461;-73
2022/08/24 08:50:24;;;;;;;14.00;12.60;;;;;;;20.77;67.89;100055.47;5035537;28;20135;-74
2022/08/24 08:53:09;;;;;;;14.85;13.43;;;;;;;20.77;68.00;100056.28;5036006;28;20084;-73
2022/08/24 08:55:58;;;;;;;14.95;13.25;;;;;;;20.65;68.05;100058.34;5041101;28;20066;-74
2022/08/24 08:58:50;;;;;;;13.15;11.68;;;;;;;20.62;67.94;100059.09;5015457;28;20504;-73
2022/08/24 09:01:40;;;;;;;12.82;11.85;;;;;;;20.50;68.62;100068.44;5013640;28;20465;-73
2022/08/24 09:04:40;;;;;;;12.27;11.07;;;;;;;20.50;68.53;100059.91;5015410;28;20083;-73
2022/08/24 09:07:17;;;;;;;13.63;12.45;;;;;;;20.49;68.18;100042.09;5015076;28;20060;-73
2022/08/24 09:10:07;;;;;;;17.55;15.35;;;;;;;20.62;67.91;100036.41;5015122;28;20085;-74
2022/08/24 09:12:51;;;;;;;14.68;13.32;;;;;;;20.83;67.79;100076.75;5032070;28;20050;-74
2022/08/24 09:15:39;;;;;;;16.85;15.18;;;;;;;20.96;67.56;100078.34;5034865;28;20508;-74
2022/08/24 09:18:12;;;;;;;13.45;11.80;;;;;;;21.01;67.49;100085.75;5035003;28;20053;-74
2022/08/24 09:21:07;;;;;;;13.85;12.43;;;;;;;21.07;67.51;100087.16;5049941;28;20045;-73
2022/08/24 09:23:49;;;;;;;12.27;11.18;;;;;;;21.16;67.24;100084.97;5034788;28;20084;-72
2022/08/24 09:26:29;;;;;;;11.50;10.40;;;;;;;21.13;66.99;100068.66;5034564;28;20045;-73
2022/08/24 09:29:36;;;;;;;11.93;10.73;;;;;;;21.15;67.04;100076.81;5034940;28;20061;-73
2022/08/24 09:32:29;;;;;;;13.02;11.70;;;;;;;21.33;66.66;100088.66;5034298;28;20049;-73
2022/08/24 09:35:17;;;;;;;12.93;11.80;;;;;;;21.39;66.62;100088.03;5034407;28;20514;-74
2022/08/24 09:37:59;;;;;;;14.10;13.05;;;;;;;21.22;66.40;100059.97;5034656;28;20132;-74
2022/08/24 09:40:35;;;;;;;16.65;15.13;;;;;;;21.09;65.96;100052.69;5034417;28;20103;-73
2022/08/24 09:43:42;;;;;;;13.52;11.13;;;;;;;21.36;66.36;100094.44;5034326;28;20085;-73
2022/08/24 09:46:40;;;;;;;13.10;11.93;;;;;;;21.34;66.24;100091.16;5035085;28;20119;-73
2022/08/24 09:49:45;;;;;;;13.27;11.20;;;;;;;21.25;66.42;100093.31;5034453;28;20080;-73
2022/08/24 09:52:49;;;;;;;12.57;11.48;;;;;;;21.23;66.20;100079.50;5025989;28;20053;-74
2022/08/24 09:55:38;;;;;;;14.23;12.88;;;;;;;21.23;66.21;100090.00;5033784;28;20041;-73
2022/08/24 09:58:29;;;;;;;12.40;11.18;;;;;;;21.36;65.96;100102.16;5034004;28;20073;-74
2022/08/24 10:01:46;;;;;;;13.70;12.27;;;;;;;21.35;66.12;100098.50;5033964;28;20049;-74
2022/08/24 10:04:35;;;;;;;12.32;11.15;;;;;;;21.48;65.97;100108.59;4997004;28;20050;-74
2022/08/24 10:07:25;;;;;;;14.43;13.07;;;;;;;21.42;66.03;100098.69;5033887;28;20175;-74
2022/08/24 10:10:20;;;;;;;15.70;11.38;;;;;;;21.52;65.78;100109.50;5033789;28;20076;-73
2022/08/24 10:13:13;;;;;;;11.93;10.82;;;;;;;21.57;65.71;100101.88;5033964;28;20054;-74
2022/08/24 10:15:46;;;;;;;11.68;10.52;;;;;;;21.63;65.57;100109.78;5033942;28;20045;-73
2022/08/24 10:18:36;;;;;;;11.63;10.43;;;;;;;21.73;65.45;100114.09;5033566;28;20130;-74
2022/08/24 10:21:25;;;;;;;11.32;10.32;;;;;;;21.40;65.50;100064.16;5053385;28;20092;-73
2022/08/24 10:24:18;;;;;;;10.68;9.77;;;;;;;21.66;65.26;100119.59;5053503;28;20092;-73
2022/08/24 10:27:17;;;;;;;11.45;10.43;;;;;;;21.72;65.29;100120.97;5053865;28;20072;-74
2022/08/24 10:29:47;;;;;;;11.10;10.00;;;;;;;21.81;65.16;100127.28;5053379;28;20061;-74
2022/08/24 10:32:14;;;;;;;;;;;;;;;21.75;65.36;100128.78;5053706;28;20044;-74
2022/08/24 10:35:05;;;;;;;12.30;9.48;;;;;;;21.74;64.70;100132.78;5053227;28;20416;-74
2022/08/24 10:41:20;;;;;;;13.93;12.82;;;;;;;21.77;64.95;100129.22;5033606;28;20053;-73
2022/08/24 10:44:06;;;;;;;11.27;10.25;;;;;;;21.47;65.03;100111.78;5033188;28;20548;-74
2022/08/24 10:46:46;;;;;;;12.05;11.02;;;;;;;21.42;65.21;100131.94;5033189;28;20115;-73
2022/08/24 10:49:34;;;;;;;13.10;11.88;;;;;;;21.42;65.25;100124.25;5033128;28;20053;-73
2022/08/24 10:52:46;;;;;;;20.42;10.43;;;;;;;21.57;65.09;100127.47;5033261;28;20053;-74
2022/08/24 10:55:33;;;;;;;12.70;10.80;;;;;;;21.35;64.91;100104.16;5033144;28;20054;-74
2022/08/24 10:58:36;;;;;;;11.43;10.32;;;;;;;21.52;64.90;100131.41;5032844;28;20553;-75
2022/08/24 11:01:36;;;;;;;14.23;13.02;;;;;;;21.49;65.17;100134.97;5032905;28;20123;-74
2022/08/24 11:04:11;;;;;;;11.52;10.25;;;;;;;21.50;65.25;100131.78;5025150;28;20049;-74
2022/08/24 11:06:43;;;;;;;10.30;9.40;;;;;;;21.67;64.92;100124.06;5032842;28;20076;-74
2022/08/24 11:09:15;;;;;;;12.50;11.40;;;;;;;21.83;64.61;100129.78;5032893;28;20056;-75
2022/08/24 11:11:48;;;;;;;10.38;9.55;;;;;;;21.76;64.60;100136.09;5033149;28;20476;-74
2022/08/24 11:14:14;;;;;;;14.10;13.02;;;;;;;21.89;64.33;100131.16;5033024;28;20053;-74
2022/08/24 11:16:49;;;;;;;10.48;9.57;;;;;;;21.69;64.24;100101.81;5032566;28;20506;-74
2022/08/24 11:19:26;;;;;;;13.35;12.35;;;;;;;21.92;64.20;100121.91;5033029;28;20049;-74
2022/08/24 11:21:55;;;;;;;12.18;10.98;;;;;;;21.93;64.38;100107.31;5032956;28;20053;-74
2022/08/24 11:24:25;;;;;;;;;;;;;;;22.15;63.72;100122.91;5032839;28;20049;-75
2022/08/24 11:27:04;;;;;;;11.57;10.45;;;;;;;22.15;63.78;100116.38;5033134;28;19982;-75
2022/08/24 11:29:49;;;;;;;15.18;13.98;;;;;;;22.38;63.49;100125.88;5032527;28;20084;-74
2022/08/24 11:32:37;;;;;;;13.18;11.70;;;;;;;22.44;63.27;100124.41;5032745;28;20399;-75
2022/08/24 11:35:07;;;;;;;12.18;10.98;;;;;;;22.51;63.21;100117.22;5032486;28;20495;-74
2022/08/24 11:37:37;;;;;;;24.58;13.07;;;;;;;22.58;63.09;100115.34;5032786;28;20120;-74
2022/08/24 11:40:07;;;;;;;29.15;14.80;;;;;;;22.55;62.67;100098.19;5033116;28;20050;-74
2022/08/24 11:42:34;;;;;;;13.82;12.82;;;;;;;22.34;62.88;100084.31;5031395;28;20057;-74
2022/08/24 11:45:27;;;;;;;14.73;13.43;;;;;;;22.47;62.50;100126.50;5032715;28;20061;-74
2022/08/24 11:48:14;;;;;;;13.13;10.70;;;;;;;22.36;62.42;100096.13;5032528;28;20490;-75
2022/08/24 11:50:56;;;;;;;11.13;9.90;;;;;;;22.64;62.29;100124.44;5032518;28;20049;-73
2022/08/24 11:53:30;;;;;;;11.95;10.80;;;;;;;22.66;62.14;100127.72;5032290;28;20049;-74
2022/08/24 11:55:57;;;;;;;12.73;9.98;;;;;;;22.43;62.08;100099.16;5031906;28;20064;-73
2022/08/24 11:58:57;;;;;;;20.00;11.15;;;;;;;22.56;62.29;100128.28;5032322;28;20132;-73
2022/08/24 12:01:31;;;;;;;15.93;11.73;;;;;;;22.57;62.32;100136.47;5038306;28;20045;-75